Main page
METAR-TAF:

METAR-TAF

Airports :

Dasht-e Naz Airport

Sari, Iran

latitude: 36-38-09N, longitude: 53-11-37E, elevation: 11 m

Current weather observation

The report was made 4 hours and 44 minutes ago, at 16:00 UTC
Wind 2 kt from the West/Northwest
Temperature 27°C
Humidity 70%
Pressure 1004 hPa
Visibility 10 km or more
no clouds below 1500 m and no cumulonimbus

METAR: OINZ 251600Z 30002KT CAVOK 27/21 Q1004

Time: 01:14 (20:44 UTC)

Forecast

The report was made 3 hours and 14 minutes ago, at 17:30 UTC
Forecast valid from 25 at 18 UTC to 26 at 03 UTC
Wind 8 kt from the West/Northwest
Visibility: 7000 m
Few clouds at a height of 3000 ft

TAF: OINZ 251730Z 2518/2603 30008KT 7000 FEW030

Weather observations and forecasts of more than 4000 airports (METAR and TAF reports).

The available stations are represented by yellow and red dots on the map.

Hover mouse over dot to see the name of the station.

Then click to see weather observations and forecasts.

To change the map : click on the green buttons with a black cross to zoom in, on the green button with a dash to zoom out, or on the green arrows for adjacent maps.


METAR-TAF: